sensor_id;sensor_type;location;lat;lon;timestamp;P1;durP1;ratioP1;P2;durP2;ratioP2
72464;SDS011;60471;52.150;4.508;2022-08-21T00:01:21;12.68;;;3.55;;
72464;SDS011;60471;52.150;4.508;2022-08-21T00:03:53;17.45;;;4.10;;
72464;SDS011;60471;52.150;4.508;2022-08-21T00:06:22;12.40;;;3.80;;
72464;SDS011;60471;52.150;4.508;2022-08-21T00:08:52;14.73;;;3.25;;
72464;SDS011;60471;52.150;4.508;2022-08-21T00:11:18;15.93;;;3.90;;
72464;SDS011;60471;52.150;4.508;2022-08-21T00:13:45;13.23;;;4.10;;
72464;SDS011;60471;52.150;4.508;2022-08-21T00:16:11;15.60;;;3.40;;
72464;SDS011;60471;52.150;4.508;2022-08-21T00:18:38;15.30;;;3.53;;
72464;SDS011;60471;52.150;4.508;2022-08-21T00:21:04;12.55;;;2.97;;
72464;SDS011;60471;52.150;4.508;2022-08-21T00:23:32;17.10;;;3.67;;
72464;SDS011;60471;52.150;4.508;2022-08-21T00:26:01;14.02;;;3.55;;
72464;SDS011;60471;52.150;4.508;2022-08-21T00:28:27;14.38;;;3.95;;
72464;SDS011;60471;52.150;4.508;2022-08-21T00:30:54;17.67;;;3.28;;
72464;SDS011;60471;52.150;4.508;2022-08-21T00:33:20;14.95;;;3.25;;
72464;SDS011;60471;52.150;4.508;2022-08-21T00:35:46;13.48;;;2.83;;
72464;SDS011;60471;52.150;4.508;2022-08-21T00:38:13;18.77;;;3.50;;
72464;SDS011;60471;52.150;4.508;2022-08-21T00:40:47;11.80;;;2.92;;
72464;SDS011;60471;52.150;4.508;2022-08-21T00:43:22;14.73;;;3.65;;
72464;SDS011;60471;52.150;4.508;2022-08-21T00:45:53;13.88;;;3.10;;
72464;SDS011;60471;52.150;4.508;2022-08-21T00:48:21;13.75;;;3.22;;
72464;SDS011;60471;52.150;4.508;2022-08-21T00:51:12;11.80;;;2.88;;
72464;SDS011;60471;52.150;4.508;2022-08-21T00:53:44;13.82;;;3.00;;
72464;SDS011;60471;52.150;4.508;2022-08-21T00:56:11;15.80;;;3.08;;
72464;SDS011;60471;52.150;4.508;2022-08-21T00:58:39;15.00;;;3.50;;
72464;SDS011;60471;52.150;4.508;2022-08-21T01:01:08;14.85;;;3.17;;
72464;SDS011;60471;52.150;4.508;2022-08-21T01:03:38;15.60;;;2.90;;
72464;SDS011;60471;52.150;4.508;2022-08-21T01:06:04;13.13;;;3.10;;
72464;SDS011;60471;52.150;4.508;2022-08-21T01:08:32;15.98;;;3.45;;
72464;SDS011;60471;52.150;4.508;2022-08-21T01:11:00;12.50;;;3.00;;
72464;SDS011;60471;52.150;4.508;2022-08-21T01:13:28;16.40;;;3.55;;
72464;SDS011;60471;52.150;4.508;2022-08-21T01:16:02;21.08;;;3.10;;
72464;SDS011;60471;52.150;4.508;2022-08-21T01:18:33;14.88;;;3.17;;
72464;SDS011;60471;52.150;4.508;2022-08-21T01:21:07;15.35;;;3.25;;
72464;SDS011;60471;52.150;4.508;2022-08-21T01:23:39;9.98;;;2.65;;
72464;SDS011;60471;52.150;4.508;2022-08-21T01:26:09;18.88;;;3.45;;
72464;SDS011;60471;52.150;4.508;2022-08-21T01:28:38;16.13;;;3.20;;
72464;SDS011;60471;52.150;4.508;2022-08-21T01:31:15;13.77;;;2.88;;
72464;SDS011;60471;52.150;4.508;2022-08-21T01:33:47;17.23;;;3.28;;
72464;SDS011;60471;52.150;4.508;2022-08-21T01:36:14;21.42;;;3.58;;
72464;SDS011;60471;52.150;4.508;2022-08-21T01:38:40;11.60;;;3.00;;
72464;SDS011;60471;52.150;4.508;2022-08-21T01:41:06;19.75;;;3.00;;
72464;SDS011;60471;52.150;4.508;2022-08-21T01:43:33;17.17;;;3.42;;
72464;SDS011;60471;52.150;4.508;2022-08-21T01:45:59;12.30;;;3.30;;
72464;SDS011;60471;52.150;4.508;2022-08-21T01:48:25;14.48;;;3.28;;
72464;SDS011;60471;52.150;4.508;2022-08-21T01:50:51;19.65;;;3.65;;
72464;SDS011;60471;52.150;4.508;2022-08-21T01:53:17;15.27;;;3.60;;
72464;SDS011;60471;52.150;4.508;2022-08-21T01:55:44;16.92;;;3.63;;
72464;SDS011;60471;52.150;4.508;2022-08-21T01:58:10;22.27;;;3.97;;
72464;SDS011;60471;52.150;4.508;2022-08-21T02:00:36;21.50;;;3.60;;
72464;SDS011;60471;52.150;4.508;2022-08-21T02:03:03;16.98;;;3.85;;
72464;SDS011;60471;52.150;4.508;2022-08-21T02:05:29;11.57;;;3.28;;
72464;SDS011;60471;52.150;4.508;2022-08-21T02:07:56;23.50;;;4.30;;
72464;SDS011;60471;52.150;4.508;2022-08-21T02:10:25;20.35;;;3.80;;
72464;SDS011;60471;52.150;4.508;2022-08-21T02:12:56;15.65;;;3.42;;
72464;SDS011;60471;52.150;4.508;2022-08-21T02:15:24;15.48;;;3.30;;
72464;SDS011;60471;52.150;4.508;2022-08-21T02:17:54;15.75;;;3.20;;
72464;SDS011;60471;52.150;4.508;2022-08-21T02:20:26;19.15;;;3.80;;
72464;SDS011;60471;52.150;4.508;2022-08-21T02:22:58;17.88;;;3.90;;
72464;SDS011;60471;52.150;4.508;2022-08-21T02:25:25;16.15;;;3.47;;
72464;SDS011;60471;52.150;4.508;2022-08-21T02:27:54;16.80;;;3.45;;
72464;SDS011;60471;52.150;4.508;2022-08-21T02:30:26;17.33;;;3.70;;
72464;SDS011;60471;52.150;4.508;2022-08-21T02:32:56;13.25;;;3.50;;
72464;SDS011;60471;52.150;4.508;2022-08-21T02:35:23;15.23;;;3.80;;
72464;SDS011;60471;52.150;4.508;2022-08-21T02:37:52;16.27;;;3.85;;
72464;SDS011;60471;52.150;4.508;2022-08-21T02:40:27;13.10;;;3.83;;
72464;SDS011;60471;52.150;4.508;2022-08-21T02:42:58;13.55;;;3.92;;
72464;SDS011;60471;52.150;4.508;2022-08-21T02:45:26;16.27;;;3.50;;
72464;SDS011;60471;52.150;4.508;2022-08-21T02:47:55;12.50;;;3.58;;
72464;SDS011;60471;52.150;4.508;2022-08-21T02:50:39;18.13;;;3.58;;
72464;SDS011;60471;52.150;4.508;2022-08-21T02:53:10;18.67;;;3.50;;
72464;SDS011;60471;52.150;4.508;2022-08-21T02:55:42;13.13;;;3.40;;
72464;SDS011;60471;52.150;4.508;2022-08-21T02:58:11;13.00;;;3.13;;
72464;SDS011;60471;52.150;4.508;2022-08-21T03:00:38;14.77;;;3.35;;
72464;SDS011;60471;52.150;4.508;2022-08-21T03:03:05;15.25;;;3.50;;
72464;SDS011;60471;52.150;4.508;2022-08-21T03:05:32;15.30;;;3.00;;
72464;SDS011;60471;52.150;4.508;2022-08-21T03:08:03;14.55;;;3.30;;
72464;SDS011;60471;52.150;4.508;2022-08-21T03:10:36;14.50;;;3.60;;
72464;SDS011;60471;52.150;4.508;2022-08-21T03:13:06;16.02;;;3.42;;
72464;SDS011;60471;52.150;4.508;2022-08-21T03:15:32;14.05;;;3.55;;
72464;SDS011;60471;52.150;4.508;2022-08-21T03:18:01;11.25;;;3.08;;
72464;SDS011;60471;52.150;4.508;2022-08-21T03:20:30;12.63;;;2.95;;
72464;SDS011;60471;52.150;4.508;2022-08-21T03:22:58;16.80;;;3.08;;
72464;SDS011;60471;52.150;4.508;2022-08-21T03:25:24;15.55;;;4.13;;
72464;SDS011;60471;52.150;4.508;2022-08-21T03:27:53;15.50;;;3.45;;
72464;SDS011;60471;52.150;4.508;2022-08-21T03:30:20;14.88;;;3.78;;
72464;SDS011;60471;52.150;4.508;2022-08-21T03:32:48;13.02;;;4.00;;
72464;SDS011;60471;52.150;4.508;2022-08-21T03:35:14;19.40;;;4.15;;
72464;SDS011;60471;52.150;4.508;2022-08-21T03:37:40;15.80;;;4.00;;
72464;SDS011;60471;52.150;4.508;2022-08-21T03:40:08;17.75;;;4.38;;
72464;SDS011;60471;52.150;4.508;2022-08-21T03:42:42;18.58;;;3.67;;
72464;SDS011;60471;52.150;4.508;2022-08-21T03:45:08;13.98;;;4.13;;
72464;SDS011;60471;52.150;4.508;2022-08-21T03:47:37;17.98;;;3.75;;
72464;SDS011;60471;52.150;4.508;2022-08-21T03:50:04;19.73;;;3.92;;
72464;SDS011;60471;52.150;4.508;2022-08-21T03:52:31;18.55;;;4.80;;
72464;SDS011;60471;52.150;4.508;2022-08-21T03:54:57;16.33;;;4.55;;
72464;SDS011;60471;52.150;4.508;2022-08-21T03:57:23;16.90;;;5.18;;
72464;SDS011;60471;52.150;4.508;2022-08-21T03:59:49;19.50;;;5.40;;
72464;SDS011;60471;52.150;4.508;2022-08-21T04:02:16;19.23;;;4.85;;
72464;SDS011;60471;52.150;4.508;2022-08-21T04:04:46;19.42;;;5.22;;
72464;SDS011;60471;52.150;4.508;2022-08-21T04:07:12;20.73;;;4.82;;
72464;SDS011;60471;52.150;4.508;2022-08-21T04:09:39;17.55;;;5.53;;
72464;SDS011;60471;52.150;4.508;2022-08-21T04:12:05;21.23;;;5.63;;
72464;SDS011;60471;52.150;4.508;2022-08-21T04:14:31;21.70;;;6.15;;
72464;SDS011;60471;52.150;4.508;2022-08-21T04:16:58;20.83;;;6.32;;
72464;SDS011;60471;52.150;4.508;2022-08-21T04:19:25;24.17;;;7.30;;
72464;SDS011;60471;52.150;4.508;2022-08-21T04:21:51;18.90;;;6.55;;
72464;SDS011;60471;52.150;4.508;2022-08-21T04:24:17;22.38;;;6.97;;
72464;SDS011;60471;52.150;4.508;2022-08-21T04:26:44;30.17;;;7.80;;
72464;SDS011;60471;52.150;4.508;2022-08-21T04:29:11;27.85;;;8.18;;
72464;SDS011;60471;52.150;4.508;2022-08-21T04:31:37;28.70;;;9.95;;
72464;SDS011;60471;52.150;4.508;2022-08-21T04:34:04;29.55;;;10.63;;
72464;SDS011;60471;52.150;4.508;2022-08-21T04:36:31;31.15;;;10.20;;
72464;SDS011;60471;52.150;4.508;2022-08-21T04:38:59;25.70;;;9.50;;
72464;SDS011;60471;52.150;4.508;2022-08-21T04:41:27;23.20;;;9.40;;
72464;SDS011;60471;52.150;4.508;2022-08-21T04:43:54;21.02;;;9.40;;
72464;SDS011;60471;52.150;4.508;2022-08-21T04:46:23;25.00;;;9.90;;
72464;SDS011;60471;52.150;4.508;2022-08-21T04:48:49;35.03;;;10.15;;
72464;SDS011;60471;52.150;4.508;2022-08-21T04:51:17;30.55;;;10.88;;
72464;SDS011;60471;52.150;4.508;2022-08-21T04:53:57;28.35;;;10.18;;
72464;SDS011;60471;52.150;4.508;2022-08-21T04:56:45;33.35;;;10.90;;
72464;SDS011;60471;52.150;4.508;2022-08-21T04:59:17;32.80;;;10.80;;
72464;SDS011;60471;52.150;4.508;2022-08-21T05:01:50;26.70;;;10.80;;
72464;SDS011;60471;52.150;4.508;2022-08-21T05:04:21;32.22;;;10.75;;
72464;SDS011;60471;52.150;4.508;2022-08-21T05:07:02;29.10;;;10.45;;
72464;SDS011;60471;52.150;4.508;2022-08-21T05:09:33;25.92;;;10.90;;
72464;SDS011;60471;52.150;4.508;2022-08-21T05:12:00;32.03;;;11.18;;
72464;SDS011;60471;52.150;4.508;2022-08-21T05:14:28;30.75;;;10.93;;
72464;SDS011;60471;52.150;4.508;2022-08-21T05:16:54;26.23;;;9.43;;
72464;SDS011;60471;52.150;4.508;2022-08-21T05:19:20;34.67;;;11.05;;
72464;SDS011;60471;52.150;4.508;2022-08-21T05:21:47;32.00;;;11.05;;
72464;SDS011;60471;52.150;4.508;2022-08-21T05:24:13;21.73;;;9.07;;
72464;SDS011;60471;52.150;4.508;2022-08-21T05:26:41;24.25;;;10.25;;
72464;SDS011;60471;52.150;4.508;2022-08-21T05:29:08;28.23;;;9.65;;
72464;SDS011;60471;52.150;4.508;2022-08-21T05:31:34;31.83;;;10.55;;
72464;SDS011;60471;52.150;4.508;2022-08-21T05:34:00;26.83;;;9.85;;
72464;SDS011;60471;52.150;4.508;2022-08-21T05:36:26;21.90;;;9.05;;
72464;SDS011;60471;52.150;4.508;2022-08-21T05:38:52;25.35;;;9.35;;
72464;SDS011;60471;52.150;4.508;2022-08-21T05:41:19;23.70;;;9.10;;
72464;SDS011;60471;52.150;4.508;2022-08-21T05:43:45;27.88;;;8.27;;
72464;SDS011;60471;52.150;4.508;2022-08-21T05:46:12;23.17;;;8.20;;
72464;SDS011;60471;52.150;4.508;2022-08-21T05:48:38;18.83;;;7.90;;
72464;SDS011;60471;52.150;4.508;2022-08-21T05:51:05;30.48;;;8.30;;
72464;SDS011;60471;52.150;4.508;2022-08-21T05:53:39;25.20;;;8.52;;
72464;SDS011;60471;52.150;4.508;2022-08-21T05:56:08;21.23;;;7.88;;
72464;SDS011;60471;52.150;4.508;2022-08-21T05:58:35;23.05;;;7.25;;
72464;SDS011;60471;52.150;4.508;2022-08-21T06:01:02;24.80;;;7.22;;
72464;SDS011;60471;52.150;4.508;2022-08-21T06:03:31;19.02;;;7.18;;
72464;SDS011;60471;52.150;4.508;2022-08-21T06:06:00;25.73;;;8.52;;
72464;SDS011;60471;52.150;4.508;2022-08-21T06:08:27;23.30;;;7.05;;
72464;SDS011;60471;52.150;4.508;2022-08-21T06:10:55;19.92;;;6.05;;
72464;SDS011;60471;52.150;4.508;2022-08-21T06:13:25;17.02;;;6.30;;
72464;SDS011;60471;52.150;4.508;2022-08-21T06:16:02;24.38;;;7.68;;
72464;SDS011;60471;52.150;4.508;2022-08-21T06:18:34;20.60;;;6.43;;
72464;SDS011;60471;52.150;4.508;2022-08-21T06:21:02;24.63;;;7.63;;
72464;SDS011;60471;52.150;4.508;2022-08-21T06:23:28;26.55;;;7.00;;
72464;SDS011;60471;52.150;4.508;2022-08-21T06:25:54;22.73;;;6.80;;
72464;SDS011;60471;52.150;4.508;2022-08-21T06:28:22;23.92;;;6.82;;
72464;SDS011;60471;52.150;4.508;2022-08-21T06:30:48;27.33;;;7.35;;
72464;SDS011;60471;52.150;4.508;2022-08-21T06:33:15;24.75;;;7.82;;
72464;SDS011;60471;52.150;4.508;2022-08-21T06:35:44;25.88;;;7.15;;
72464;SDS011;60471;52.150;4.508;2022-08-21T06:38:10;27.13;;;7.70;;
72464;SDS011;60471;52.150;4.508;2022-08-21T06:40:36;18.08;;;6.35;;
72464;SDS011;60471;52.150;4.508;2022-08-21T06:43:08;23.85;;;7.28;;
72464;SDS011;60471;52.150;4.508;2022-08-21T06:45:38;15.88;;;6.25;;
72464;SDS011;60471;52.150;4.508;2022-08-21T06:48:05;24.67;;;6.88;;
72464;SDS011;60471;52.150;4.508;2022-08-21T06:50:33;20.23;;;6.85;;
72464;SDS011;60471;52.150;4.508;2022-08-21T06:53:01;21.05;;;6.88;;
72464;SDS011;60471;52.150;4.508;2022-08-21T06:55:35;18.77;;;6.38;;
72464;SDS011;60471;52.150;4.508;2022-08-21T06:58:03;19.80;;;6.47;;
72464;SDS011;60471;52.150;4.508;2022-08-21T07:00:31;17.98;;;5.68;;
72464;SDS011;60471;52.150;4.508;2022-08-21T07:02:58;26.90;;;7.50;;
72464;SDS011;60471;52.150;4.508;2022-08-21T07:05:25;29.05;;;7.40;;
72464;SDS011;60471;52.150;4.508;2022-08-21T07:07:53;21.65;;;6.28;;
72464;SDS011;60471;52.150;4.508;2022-08-21T07:10:19;21.80;;;6.80;;
72464;SDS011;60471;52.150;4.508;2022-08-21T07:12:45;22.02;;;6.13;;
72464;SDS011;60471;52.150;4.508;2022-08-21T07:15:14;24.73;;;6.85;;
72464;SDS011;60471;52.150;4.508;2022-08-21T07:17:41;23.17;;;5.97;;
72464;SDS011;60471;52.150;4.508;2022-08-21T07:20:07;17.90;;;6.35;;
72464;SDS011;60471;52.150;4.508;2022-08-21T07:22:35;21.77;;;5.68;;
72464;SDS011;60471;52.150;4.508;2022-08-21T07:25:04;20.15;;;5.32;;
72464;SDS011;60471;52.150;4.508;2022-08-21T07:27:31;25.50;;;5.50;;
72464;SDS011;60471;52.150;4.508;2022-08-21T07:29:58;21.08;;;5.53;;
72464;SDS011;60471;52.150;4.508;2022-08-21T07:32:24;24.05;;;5.85;;
72464;SDS011;60471;52.150;4.508;2022-08-21T07:34:51;25.73;;;6.03;;
72464;SDS011;60471;52.150;4.508;2022-08-21T07:37:17;22.10;;;5.68;;
72464;SDS011;60471;52.150;4.508;2022-08-21T07:39:43;21.70;;;6.05;;
72464;SDS011;60471;52.150;4.508;2022-08-21T07:42:10;20.85;;;4.85;;
72464;SDS011;60471;52.150;4.508;2022-08-21T07:44:36;24.38;;;5.25;;
72464;SDS011;60471;52.150;4.508;2022-08-21T07:47:02;23.63;;;5.40;;
72464;SDS011;60471;52.150;4.508;2022-08-21T07:49:28;24.17;;;4.90;;
72464;SDS011;60471;52.150;4.508;2022-08-21T07:51:55;23.10;;;4.95;;
72464;SDS011;60471;52.150;4.508;2022-08-21T07:54:22;20.35;;;4.40;;
72464;SDS011;60471;52.150;4.508;2022-08-21T07:56:48;20.13;;;4.45;;
72464;SDS011;60471;52.150;4.508;2022-08-21T07:59:14;23.92;;;5.28;;
72464;SDS011;60471;52.150;4.508;2022-08-21T08:01:40;15.77;;;4.38;;
72464;SDS011;60471;52.150;4.508;2022-08-21T08:04:07;19.20;;;4.32;;
72464;SDS011;60471;52.150;4.508;2022-08-21T08:06:33;21.58;;;4.55;;
72464;SDS011;60471;52.150;4.508;2022-08-21T08:08:59;17.65;;;4.00;;
72464;SDS011;60471;52.150;4.508;2022-08-21T08:11:29;18.33;;;4.35;;
72464;SDS011;60471;52.150;4.508;2022-08-21T08:13:56;23.45;;;4.75;;
72464;SDS011;60471;52.150;4.508;2022-08-21T08:16:25;18.48;;;3.30;;
72464;SDS011;60471;52.150;4.508;2022-08-21T08:18:52;19.30;;;3.80;;
72464;SDS011;60471;52.150;4.508;2022-08-21T08:21:21;22.17;;;4.18;;
72464;SDS011;60471;52.150;4.508;2022-08-21T08:23:48;20.70;;;3.97;;
72464;SDS011;60471;52.150;4.508;2022-08-21T08:26:15;21.08;;;3.85;;
72464;SDS011;60471;52.150;4.508;2022-08-21T08:28:44;15.60;;;3.28;;
72464;SDS011;60471;52.150;4.508;2022-08-21T08:31:12;16.85;;;3.75;;
72464;SDS011;60471;52.150;4.508;2022-08-21T08:33:38;19.50;;;3.88;;
72464;SDS011;60471;52.150;4.508;2022-08-21T08:36:05;15.15;;;3.83;;
72464;SDS011;60471;52.150;4.508;2022-08-21T08:38:40;16.67;;;3.80;;
72464;SDS011;60471;52.150;4.508;2022-08-21T08:41:13;20.20;;;3.88;;
72464;SDS011;60471;52.150;4.508;2022-08-21T08:43:54;21.48;;;3.72;;
72464;SDS011;60471;52.150;4.508;2022-08-21T08:46:34;19.52;;;3.03;;
72464;SDS011;60471;52.150;4.508;2022-08-21T08:52:22;18.60;;;3.33;;
72464;SDS011;60471;52.150;4.508;2022-08-21T08:55:10;20.15;;;3.13;;
72464;SDS011;60471;52.150;4.508;2022-08-21T08:57:52;17.20;;;2.90;;
72464;SDS011;60471;52.150;4.508;2022-08-21T09:00:22;11.05;;;2.13;;
72464;SDS011;60471;52.150;4.508;2022-08-21T09:02:54;10.63;;;2.33;;
72464;SDS011;60471;52.150;4.508;2022-08-21T09:05:25;12.15;;;2.17;;
72464;SDS011;60471;52.150;4.508;2022-08-21T09:14:33;12.23;;;2.00;;
72464;SDS011;60471;52.150;4.508;2022-08-21T09:17:16;11.25;;;1.63;;
72464;SDS011;60471;52.150;4.508;2022-08-21T09:28:34;11.55;;;2.03;;
72464;SDS011;60471;52.150;4.508;2022-08-21T09:31:24;9.98;;;2.35;;
72464;SDS011;60471;52.150;4.508;2022-08-21T09:33:57;8.75;;;1.77;;
72464;SDS011;60471;52.150;4.508;2022-08-21T09:36:49;9.45;;;2.38;;
72464;SDS011;60471;52.150;4.508;2022-08-21T09:41:57;14.10;;;2.20;;
72464;SDS011;60471;52.150;4.508;2022-08-21T09:44:28;12.48;;;1.75;;
72464;SDS011;60471;52.150;4.508;2022-08-21T09:47:02;12.63;;;2.03;;
72464;SDS011;60471;52.150;4.508;2022-08-21T09:49:30;9.20;;;1.70;;
72464;SDS011;60471;52.150;4.508;2022-08-21T09:52:00;9.70;;;1.90;;
72464;SDS011;60471;52.150;4.508;2022-08-21T09:59:55;12.88;;;1.80;;
72464;SDS011;60471;52.150;4.508;2022-08-21T10:02:29;15.00;;;1.88;;
72464;SDS011;60471;52.150;4.508;2022-08-21T10:04:59;10.27;;;1.90;;
72464;SDS011;60471;52.150;4.508;2022-08-21T10:07:48;8.68;;;1.90;;
72464;SDS011;60471;52.150;4.508;2022-08-21T10:10:29;15.98;;;2.10;;
72464;SDS011;60471;52.150;4.508;2022-08-21T10:21:45;11.48;;;1.90;;
72464;SDS011;60471;52.150;4.508;2022-08-21T10:24:54;12.00;;;2.10;;
72464;SDS011;60471;52.150;4.508;2022-08-21T10:30:59;11.98;;;2.75;;
72464;SDS011;60471;52.150;4.508;2022-08-21T10:36:42;9.43;;;1.92;;
72464;SDS011;60471;52.150;4.508;2022-08-21T10:39:40;10.48;;;1.90;;
72464;SDS011;60471;52.150;4.508;2022-08-21T10:48:35;13.07;;;2.40;;
72464;SDS011;60471;52.150;4.508;2022-08-21T10:56:59;11.32;;;1.95;;
72464;SDS011;60471;52.150;4.508;2022-08-21T10:59:48;11.98;;;1.77;;
72464;SDS011;60471;52.150;4.508;2022-08-21T11:02:29;11.68;;;2.30;;
72464;SDS011;60471;52.150;4.508;2022-08-21T11:10:50;6.65;;;1.73;;
72464;SDS011;60471;52.150;4.508;2022-08-21T11:16:23;10.13;;;2.00;;
72464;SDS011;60471;52.150;4.508;2022-08-21T11:19:21;16.52;;;2.28;;
72464;SDS011;60471;52.150;4.508;2022-08-21T11:27:36;8.43;;;1.80;;
72464;SDS011;60471;52.150;4.508;2022-08-21T11:30:41;13.27;;;2.20;;
72464;SDS011;60471;52.150;4.508;2022-08-21T11:36:08;11.02;;;1.98;;
72464;SDS011;60471;52.150;4.508;2022-08-21T11:42:15;9.90;;;2.17;;
72464;SDS011;60471;52.150;4.508;2022-08-21T11:45:19;9.75;;;2.10;;
72464;SDS011;60471;52.150;4.508;2022-08-21T11:50:48;10.43;;;2.10;;
72464;SDS011;60471;52.150;4.508;2022-08-21T11:53:23;10.32;;;2.00;;
72464;SDS011;60471;52.150;4.508;2022-08-21T11:58:51;11.07;;;2.08;;
72464;SDS011;60471;52.150;4.508;2022-08-21T12:01:27;13.50;;;2.28;;
72464;SDS011;60471;52.150;4.508;2022-08-21T12:04:06;16.27;;;2.20;;
72464;SDS011;60471;52.150;4.508;2022-08-21T12:06:44;12.27;;;2.30;;
72464;SDS011;60471;52.150;4.508;2022-08-21T12:09:32;10.70;;;1.80;;
72464;SDS011;60471;52.150;4.508;2022-08-21T12:12:06;11.05;;;1.90;;
72464;SDS011;60471;52.150;4.508;2022-08-21T12:14:48;13.00;;;2.17;;
72464;SDS011;60471;52.150;4.508;2022-08-21T12:17:37;17.00;;;2.97;;
72464;SDS011;60471;52.150;4.508;2022-08-21T12:22:54;10.47;;;2.00;;
72464;SDS011;60471;52.150;4.508;2022-08-21T12:28:43;10.75;;;2.28;;
72464;SDS011;60471;52.150;4.508;2022-08-21T12:31:20;9.65;;;1.90;;
72464;SDS011;60471;52.150;4.508;2022-08-21T12:33:56;15.52;;;2.13;;
72464;SDS011;60471;52.150;4.508;2022-08-21T12:39:24;9.35;;;1.67;;
72464;SDS011;60471;52.150;4.508;2022-08-21T12:42:04;9.60;;;1.83;;
72464;SDS011;60471;52.150;4.508;2022-08-21T12:44:43;9.65;;;1.88;;
72464;SDS011;60471;52.150;4.508;2022-08-21T12:49:59;10.80;;;2.33;;
72464;SDS011;60471;52.150;4.508;2022-08-21T12:52:38;13.57;;;2.13;;
72464;SDS011;60471;52.150;4.508;2022-08-21T12:55:15;11.57;;;1.92;;
72464;SDS011;60471;52.150;4.508;2022-08-21T12:57:50;10.45;;;1.92;;
72464;SDS011;60471;52.150;4.508;2022-08-21T13:00:19;11.95;;;1.95;;
72464;SDS011;60471;52.150;4.508;2022-08-21T13:02:49;9.85;;;1.60;;
72464;SDS011;60471;52.150;4.508;2022-08-21T13:05:25;8.65;;;2.00;;
72464;SDS011;60471;52.150;4.508;2022-08-21T13:08:03;11.32;;;2.10;;
72464;SDS011;60471;52.150;4.508;2022-08-21T13:10:33;11.10;;;1.67;;
72464;SDS011;60471;52.150;4.508;2022-08-21T13:13:03;8.45;;;1.80;;
72464;SDS011;60471;52.150;4.508;2022-08-21T13:15:33;11.95;;;1.65;;
72464;SDS011;60471;52.150;4.508;2022-08-21T13:18:05;14.50;;;1.92;;
72464;SDS011;60471;52.150;4.508;2022-08-21T13:20:33;13.48;;;2.40;;
72464;SDS011;60471;52.150;4.508;2022-08-21T13:23:06;10.50;;;1.85;;
72464;SDS011;60471;52.150;4.508;2022-08-21T13:25:45;10.20;;;1.70;;
72464;SDS011;60471;52.150;4.508;2022-08-21T13:28:12;10.68;;;2.47;;
72464;SDS011;60471;52.150;4.508;2022-08-21T13:30:44;9.52;;;1.77;;
72464;SDS011;60471;52.150;4.508;2022-08-21T13:33:16;7.30;;;1.55;;
72464;SDS011;60471;52.150;4.508;2022-08-21T13:35:51;12.10;;;1.80;;
72464;SDS011;60471;52.150;4.508;2022-08-21T13:38:31;10.82;;;1.98;;
72464;SDS011;60471;52.150;4.508;2022-08-21T13:41:02;9.43;;;1.80;;
72464;SDS011;60471;52.150;4.508;2022-08-21T13:46:21;9.50;;;2.05;;
72464;SDS011;60471;52.150;4.508;2022-08-21T13:48:52;11.13;;;2.40;;
72464;SDS011;60471;52.150;4.508;2022-08-21T13:51:20;13.38;;;2.40;;
72464;SDS011;60471;52.150;4.508;2022-08-21T13:53:48;12.45;;;1.98;;
72464;SDS011;60471;52.150;4.508;2022-08-21T13:59:11;12.63;;;1.77;;
72464;SDS011;60471;52.150;4.508;2022-08-21T14:01:38;9.85;;;1.80;;
72464;SDS011;60471;52.150;4.508;2022-08-21T14:04:22;12.25;;;2.03;;
72464;SDS011;60471;52.150;4.508;2022-08-21T14:06:52;9.30;;;2.03;;
72464;SDS011;60471;52.150;4.508;2022-08-21T14:09:53;16.10;;;1.90;;
72464;SDS011;60471;52.150;4.508;2022-08-21T14:12:17;11.52;;;1.80;;
72464;SDS011;60471;52.150;4.508;2022-08-21T14:14:53;10.93;;;2.00;;
72464;SDS011;60471;52.150;4.508;2022-08-21T14:17:36;9.68;;;1.80;;
72464;SDS011;60471;52.150;4.508;2022-08-21T14:20:08;9.07;;;1.90;;
72464;SDS011;60471;52.150;4.508;2022-08-21T14:22:52;13.45;;;2.00;;
72464;SDS011;60471;52.150;4.508;2022-08-21T14:30:30;9.05;;;1.90;;
72464;SDS011;60471;52.150;4.508;2022-08-21T14:33:01;10.60;;;1.90;;
72464;SDS011;60471;52.150;4.508;2022-08-21T14:35:33;10.70;;;2.22;;
72464;SDS011;60471;52.150;4.508;2022-08-21T14:37:59;9.05;;;1.80;;
72464;SDS011;60471;52.150;4.508;2022-08-21T14:40:25;14.02;;;2.22;;
72464;SDS011;60471;52.150;4.508;2022-08-21T14:42:52;13.15;;;2.30;;
72464;SDS011;60471;52.150;4.508;2022-08-21T14:45:29;10.95;;;2.00;;
72464;SDS011;60471;52.150;4.508;2022-08-21T14:47:57;13.50;;;2.20;;
72464;SDS011;60471;52.150;4.508;2022-08-21T14:50:24;13.82;;;2.35;;
72464;SDS011;60471;52.150;4.508;2022-08-21T14:52:51;12.50;;;2.20;;
72464;SDS011;60471;52.150;4.508;2022-08-21T14:55:18;14.95;;;2.17;;
72464;SDS011;60471;52.150;4.508;2022-08-21T14:57:45;9.82;;;2.10;;
72464;SDS011;60471;52.150;4.508;2022-08-21T15:00:16;17.27;;;2.70;;
72464;SDS011;60471;52.150;4.508;2022-08-21T15:02:51;11.10;;;2.03;;
72464;SDS011;60471;52.150;4.508;2022-08-21T15:05:17;10.77;;;2.00;;
72464;SDS011;60471;52.150;4.508;2022-08-21T15:07:44;12.52;;;2.08;;
72464;SDS011;60471;52.150;4.508;2022-08-21T15:10:11;11.60;;;2.05;;
72464;SDS011;60471;52.150;4.508;2022-08-21T15:12:38;14.35;;;2.42;;
72464;SDS011;60471;52.150;4.508;2022-08-21T15:15:05;13.15;;;2.30;;
72464;SDS011;60471;52.150;4.508;2022-08-21T15:17:33;10.82;;;2.35;;
72464;SDS011;60471;52.150;4.508;2022-08-21T15:19:59;9.45;;;2.05;;
72464;SDS011;60471;52.150;4.508;2022-08-21T15:22:25;11.93;;;2.22;;
72464;SDS011;60471;52.150;4.508;2022-08-21T15:24:51;14.30;;;2.90;;
72464;SDS011;60471;52.150;4.508;2022-08-21T15:27:18;16.92;;;2.63;;
72464;SDS011;60471;52.150;4.508;2022-08-21T15:29:45;13.18;;;2.13;;
72464;SDS011;60471;52.150;4.508;2022-08-21T15:32:19;11.23;;;2.05;;
72464;SDS011;60471;52.150;4.508;2022-08-21T15:34:50;11.52;;;1.95;;
72464;SDS011;60471;52.150;4.508;2022-08-21T15:37:18;12.40;;;2.28;;
72464;SDS011;60471;52.150;4.508;2022-08-21T15:39:45;11.00;;;2.30;;
72464;SDS011;60471;52.150;4.508;2022-08-21T15:42:11;14.48;;;2.33;;
72464;SDS011;60471;52.150;4.508;2022-08-21T15:44:39;10.15;;;2.38;;
72464;SDS011;60471;52.150;4.508;2022-08-21T15:47:09;10.15;;;2.20;;
72464;SDS011;60471;52.150;4.508;2022-08-21T15:49:40;14.20;;;2.40;;
72464;SDS011;60471;52.150;4.508;2022-08-21T15:52:17;12.90;;;2.58;;
72464;SDS011;60471;52.150;4.508;2022-08-21T15:54:46;11.40;;;2.03;;
72464;SDS011;60471;52.150;4.508;2022-08-21T15:57:15;12.40;;;2.33;;
72464;SDS011;60471;52.150;4.508;2022-08-21T16:02:20;11.95;;;2.30;;
72464;SDS011;60471;52.150;4.508;2022-08-21T16:04:52;9.55;;;2.42;;
72464;SDS011;60471;52.150;4.508;2022-08-21T16:07:20;14.20;;;2.50;;
72464;SDS011;60471;52.150;4.508;2022-08-21T16:09:46;10.52;;;2.10;;
72464;SDS011;60471;52.150;4.508;2022-08-21T16:12:15;12.95;;;2.70;;
72464;SDS011;60471;52.150;4.508;2022-08-21T16:14:48;16.52;;;2.35;;
72464;SDS011;60471;52.150;4.508;2022-08-21T16:17:15;10.75;;;2.75;;
72464;SDS011;60471;52.150;4.508;2022-08-21T16:19:41;12.95;;;2.33;;
72464;SDS011;60471;52.150;4.508;2022-08-21T16:22:08;9.65;;;2.05;;
72464;SDS011;60471;52.150;4.508;2022-08-21T16:24:34;13.60;;;2.10;;
72464;SDS011;60471;52.150;4.508;2022-08-21T16:27:01;13.48;;;2.35;;
72464;SDS011;60471;52.150;4.508;2022-08-21T16:29:32;14.35;;;2.10;;
72464;SDS011;60471;52.150;4.508;2022-08-21T16:32:01;15.50;;;2.45;;
72464;SDS011;60471;52.150;4.508;2022-08-21T16:34:29;14.98;;;2.75;;
72464;SDS011;60471;52.150;4.508;2022-08-21T16:36:56;13.65;;;2.38;;
72464;SDS011;60471;52.150;4.508;2022-08-21T16:39:22;13.57;;;2.22;;
72464;SDS011;60471;52.150;4.508;2022-08-21T16:41:49;11.70;;;2.15;;